sensor_id;sensor_type;location;lat;lon;timestamp;temperature;humidity
9057;DHT22;4563;54.756;9.400;2022-12-18T00:00:43;-1.00;75.30
9057;DHT22;4563;54.756;9.400;2022-12-18T00:03:14;-1.10;75.10
9057;DHT22;4563;54.756;9.400;2022-12-18T00:05:46;-1.10;75.10
9057;DHT22;4563;54.756;9.400;2022-12-18T00:08:14;-1.10;75.20
9057;DHT22;4563;54.756;9.400;2022-12-18T00:10:41;-1.10;75.20
9057;DHT22;4563;54.756;9.400;2022-12-18T00:13:08;-1.20;75.40
9057;DHT22;4563;54.756;9.400;2022-12-18T00:15:35;-1.20;75.40
9057;DHT22;4563;54.756;9.400;2022-12-18T00:18:03;-1.20;75.50
9057;DHT22;4563;54.756;9.400;2022-12-18T00:20:32;-1.20;75.20
9057;DHT22;4563;54.756;9.400;2022-12-18T00:23:01;-1.20;75.30
9057;DHT22;4563;54.756;9.400;2022-12-18T00:25:28;-1.30;75.30
9057;DHT22;4563;54.756;9.400;2022-12-18T00:27:55;-1.30;76.10
9057;DHT22;4563;54.756;9.400;2022-12-18T00:30:22;-1.30;75.40
9057;DHT22;4563;54.756;9.400;2022-12-18T00:32:48;-1.30;75.30
9057;DHT22;4563;54.756;9.400;2022-12-18T00:35:15;-1.30;75.30
9057;DHT22;4563;54.756;9.400;2022-12-18T00:37:43;-1.30;75.30
9057;DHT22;4563;54.756;9.400;2022-12-18T00:40:11;-1.30;75.30
9057;DHT22;4563;54.756;9.400;2022-12-18T00:42:38;-1.40;75.40
9057;DHT22;4563;54.756;9.400;2022-12-18T00:45:22;-1.40;75.30
9057;DHT22;4563;54.756;9.400;2022-12-18T00:47:49;-1.30;75.20
9057;DHT22;4563;54.756;9.400;2022-12-18T00:50:16;-1.30;75.00
9057;DHT22;4563;54.756;9.400;2022-12-18T00:52:44;-1.40;75.00
9057;DHT22;4563;54.756;9.400;2022-12-18T00:55:12;-1.30;75.20
9057;DHT22;4563;54.756;9.400;2022-12-18T00:57:39;-1.30;75.20
9057;DHT22;4563;54.756;9.400;2022-12-18T01:00:09;-1.30;75.10
9057;DHT22;4563;54.756;9.400;2022-12-18T01:02:36;-1.30;75.20
9057;DHT22;4563;54.756;9.400;2022-12-18T01:05:03;-1.30;75.10
9057;DHT22;4563;54.756;9.400;2022-12-18T01:07:30;-1.30;75.00
9057;DHT22;4563;54.756;9.400;2022-12-18T01:09:58;-1.30;74.90
9057;DHT22;4563;54.756;9.400;2022-12-18T01:12:25;-1.30;74.80
9057;DHT22;4563;54.756;9.400;2022-12-18T01:14:52;-1.30;75.10
9057;DHT22;4563;54.756;9.400;2022-12-18T01:17:19;-1.40;75.20
9057;DHT22;4563;54.756;9.400;2022-12-18T01:19:46;-1.40;75.10
9057;DHT22;4563;54.756;9.400;2022-12-18T01:22:12;-1.40;75.10
9057;DHT22;4563;54.756;9.400;2022-12-18T01:24:39;-1.40;75.00
9057;DHT22;4563;54.756;9.400;2022-12-18T01:27:07;-1.40;75.00
9057;DHT22;4563;54.756;9.400;2022-12-18T01:29:34;-1.40;74.90
9057;DHT22;4563;54.756;9.400;2022-12-18T01:32:04;-1.50;75.10
9057;DHT22;4563;54.756;9.400;2022-12-18T01:34:32;-1.50;75.10
9057;DHT22;4563;54.756;9.400;2022-12-18T01:37:02;-1.50;75.20
9057;DHT22;4563;54.756;9.400;2022-12-18T01:39:29;-1.50;75.10
9057;DHT22;4563;54.756;9.400;2022-12-18T01:41:57;-1.50;75.20
9057;DHT22;4563;54.756;9.400;2022-12-18T01:44:55;-1.50;75.20
9057;DHT22;4563;54.756;9.400;2022-12-18T01:47:25;-1.50;75.10
9057;DHT22;4563;54.756;9.400;2022-12-18T01:49:53;-1.50;75.20
9057;DHT22;4563;54.756;9.400;2022-12-18T01:52:21;-1.50;75.10
9057;DHT22;4563;54.756;9.400;2022-12-18T01:54:49;-1.60;75.30
9057;DHT22;4563;54.756;9.400;2022-12-18T01:57:17;-1.60;75.40
9057;DHT22;4563;54.756;9.400;2022-12-18T01:59:45;-1.60;75.30
9057;DHT22;4563;54.756;9.400;2022-12-18T02:02:15;-1.60;75.30
9057;DHT22;4563;54.756;9.400;2022-12-18T02:04:43;-1.60;75.60
9057;DHT22;4563;54.756;9.400;2022-12-18T02:07:14;-1.60;75.10
9057;DHT22;4563;54.756;9.400;2022-12-18T02:09:46;-1.60;75.00
9057;DHT22;4563;54.756;9.400;2022-12-18T02:12:18;-1.60;74.90
9057;DHT22;4563;54.756;9.400;2022-12-18T02:14:52;-1.60;75.20
9057;DHT22;4563;54.756;9.400;2022-12-18T02:17:25;-1.60;75.20
9057;DHT22;4563;54.756;9.400;2022-12-18T02:20:04;-1.60;75.10
9057;DHT22;4563;54.756;9.400;2022-12-18T02:22:41;-1.60;75.00
9057;DHT22;4563;54.756;9.400;2022-12-18T02:25:20;-1.60;75.00
9057;DHT22;4563;54.756;9.400;2022-12-18T02:27:52;-1.60;75.10
9057;DHT22;4563;54.756;9.400;2022-12-18T02:30:19;-1.60;75.20
9057;DHT22;4563;54.756;9.400;2022-12-18T02:32:49;-1.60;75.10
9057;DHT22;4563;54.756;9.400;2022-12-18T02:35:20;-1.70;75.20
9057;DHT22;4563;54.756;9.400;2022-12-18T02:37:48;-1.70;75.00
9057;DHT22;4563;54.756;9.400;2022-12-18T02:40:16;-1.70;75.00
9057;DHT22;4563;54.756;9.400;2022-12-18T02:42:43;-1.70;75.00
9057;DHT22;4563;54.756;9.400;2022-12-18T02:45:11;-1.70;75.10
9057;DHT22;4563;54.756;9.400;2022-12-18T02:47:42;-1.60;74.90
9057;DHT22;4563;54.756;9.400;2022-12-18T02:50:16;-1.60;74.80
9057;DHT22;4563;54.756;9.400;2022-12-18T02:52:51;-1.60;74.70
9057;DHT22;4563;54.756;9.400;2022-12-18T02:55:28;-1.60;74.80
9057;DHT22;4563;54.756;9.400;2022-12-18T02:58:04;-1.70;74.90
9057;DHT22;4563;54.756;9.400;2022-12-18T03:00:38;-1.70;74.80
9057;DHT22;4563;54.756;9.400;2022-12-18T03:03:09;-1.70;74.80
9057;DHT22;4563;54.756;9.400;2022-12-18T03:05:41;-1.70;75.50
9057;DHT22;4563;54.756;9.400;2022-12-18T03:08:13;-1.70;74.80
9057;DHT22;4563;54.756;9.400;2022-12-18T03:10:45;-1.70;74.70
9057;DHT22;4563;54.756;9.400;2022-12-18T03:13:20;-1.70;74.70
9057;DHT22;4563;54.756;9.400;2022-12-18T03:15:51;-1.70;74.90
9057;DHT22;4563;54.756;9.400;2022-12-18T03:18:23;-1.80;75.00
9057;DHT22;4563;54.756;9.400;2022-12-18T03:20:52;-1.70;75.00
9057;DHT22;4563;54.756;9.400;2022-12-18T03:23:23;-1.70;75.00
9057;DHT22;4563;54.756;9.400;2022-12-18T03:25:54;-1.80;74.90
9057;DHT22;4563;54.756;9.400;2022-12-18T03:28:23;-1.70;74.80
9057;DHT22;4563;54.756;9.400;2022-12-18T03:30:53;-1.70;74.80
9057;DHT22;4563;54.756;9.400;2022-12-18T03:33:26;-1.70;74.70
9057;DHT22;4563;54.756;9.400;2022-12-18T03:35:54;-1.80;74.70
9057;DHT22;4563;54.756;9.400;2022-12-18T03:38:20;-1.70;74.70
9057;DHT22;4563;54.756;9.400;2022-12-18T03:40:53;-1.70;74.50
9057;DHT22;4563;54.756;9.400;2022-12-18T03:43:32;-1.70;74.50
9057;DHT22;4563;54.756;9.400;2022-12-18T03:46:08;-1.70;74.40
9057;DHT22;4563;54.756;9.400;2022-12-18T03:48:41;-1.70;74.50
9057;DHT22;4563;54.756;9.400;2022-12-18T03:51:11;-1.70;74.30
9057;DHT22;4563;54.756;9.400;2022-12-18T03:53:45;-1.70;74.40
9057;DHT22;4563;54.756;9.400;2022-12-18T03:56:14;-1.70;74.50
9057;DHT22;4563;54.756;9.400;2022-12-18T03:58:43;-1.70;74.50
9057;DHT22;4563;54.756;9.400;2022-12-18T04:01:15;-1.70;74.60
9057;DHT22;4563;54.756;9.400;2022-12-18T04:03:44;-1.80;74.70
9057;DHT22;4563;54.756;9.400;2022-12-18T04:06:12;-1.80;74.60
9057;DHT22;4563;54.756;9.400;2022-12-18T04:08:40;-1.70;74.60
9057;DHT22;4563;54.756;9.400;2022-12-18T04:11:07;-1.80;74.30
9057;DHT22;4563;54.756;9.400;2022-12-18T04:13:36;-1.70;75.10
9057;DHT22;4563;54.756;9.400;2022-12-18T04:16:03;-1.80;74.50
9057;DHT22;4563;54.756;9.400;2022-12-18T04:18:32;-1.80;74.50
9057;DHT22;4563;54.756;9.400;2022-12-18T04:20:59;-1.80;74.50
9057;DHT22;4563;54.756;9.400;2022-12-18T04:23:25;-1.80;74.50
9057;DHT22;4563;54.756;9.400;2022-12-18T04:25:52;-1.80;74.50
9057;DHT22;4563;54.756;9.400;2022-12-18T04:28:19;-1.90;74.50
9057;DHT22;4563;54.756;9.400;2022-12-18T04:30:47;-1.80;74.60
9057;DHT22;4563;54.756;9.400;2022-12-18T04:33:14;-1.80;74.60
9057;DHT22;4563;54.756;9.400;2022-12-18T04:35:42;-1.80;74.40
9057;DHT22;4563;54.756;9.400;2022-12-18T04:38:09;-1.90;74.40
9057;DHT22;4563;54.756;9.400;2022-12-18T04:40:37;-1.80;74.30
9057;DHT22;4563;54.756;9.400;2022-12-18T04:43:04;-1.80;74.30
9057;DHT22;4563;54.756;9.400;2022-12-18T04:45:32;-1.80;74.20
9057;DHT22;4563;54.756;9.400;2022-12-18T04:47:59;-1.80;74.20
9057;DHT22;4563;54.756;9.400;2022-12-18T04:50:26;-1.80;74.10
9057;DHT22;4563;54.756;9.400;2022-12-18T04:52:55;-1.80;74.10
9057;DHT22;4563;54.756;9.400;2022-12-18T04:55:22;-1.80;74.10
9057;DHT22;4563;54.756;9.400;2022-12-18T04:57:48;-1.80;74.10
9057;DHT22;4563;54.756;9.400;2022-12-18T05:00:16;-1.80;74.10
9057;DHT22;4563;54.756;9.400;2022-12-18T05:02:42;-1.80;74.10
9057;DHT22;4563;54.756;9.400;2022-12-18T05:05:09;-1.90;74.00
9057;DHT22;4563;54.756;9.400;2022-12-18T05:07:36;-1.80;74.10
9057;DHT22;4563;54.756;9.400;2022-12-18T05:10:06;-1.90;74.00
9057;DHT22;4563;54.756;9.400;2022-12-18T05:12:33;-1.80;74.10
9057;DHT22;4563;54.756;9.400;2022-12-18T05:15:20;-1.90;74.00
9057;DHT22;4563;54.756;9.400;2022-12-18T05:17:47;-1.80;74.00
9057;DHT22;4563;54.756;9.400;2022-12-18T05:20:14;-1.90;73.90
9057;DHT22;4563;54.756;9.400;2022-12-18T05:22:40;-1.90;73.80
9057;DHT22;4563;54.756;9.400;2022-12-18T05:25:09;-1.90;74.10
9057;DHT22;4563;54.756;9.400;2022-12-18T05:27:36;-1.90;74.10
9057;DHT22;4563;54.756;9.400;2022-12-18T05:30:03;-2.00;74.10
9057;DHT22;4563;54.756;9.400;2022-12-18T05:32:30;-1.90;74.30
9057;DHT22;4563;54.756;9.400;2022-12-18T05:34:57;-2.00;74.20
9057;DHT22;4563;54.756;9.400;2022-12-18T05:37:24;-2.00;74.20
9057;DHT22;4563;54.756;9.400;2022-12-18T05:39:50;-2.10;75.00
9057;DHT22;4563;54.756;9.400;2022-12-18T05:42:19;-2.00;74.30
9057;DHT22;4563;54.756;9.400;2022-12-18T05:44:45;-2.10;74.40
9057;DHT22;4563;54.756;9.400;2022-12-18T05:47:13;-2.10;74.30
9057;DHT22;4563;54.756;9.400;2022-12-18T05:49:39;-2.10;74.40
9057;DHT22;4563;54.756;9.400;2022-12-18T05:52:06;-2.10;74.40
9057;DHT22;4563;54.756;9.400;2022-12-18T05:54:33;-2.10;74.40
9057;DHT22;4563;54.756;9.400;2022-12-18T05:57:00;-2.10;74.20
9057;DHT22;4563;54.756;9.400;2022-12-18T05:59:28;-2.10;74.40
9057;DHT22;4563;54.756;9.400;2022-12-18T06:01:55;-2.10;74.20
9057;DHT22;4563;54.756;9.400;2022-12-18T06:04:22;-2.20;74.20
9057;DHT22;4563;54.756;9.400;2022-12-18T06:06:49;-2.20;74.60
9057;DHT22;4563;54.756;9.400;2022-12-18T06:09:16;-2.20;75.10
9057;DHT22;4563;54.756;9.400;2022-12-18T06:11:42;-2.20;74.50
9057;DHT22;4563;54.756;9.400;2022-12-18T06:14:09;-2.30;74.50
9057;DHT22;4563;54.756;9.400;2022-12-18T06:16:38;-2.30;74.50
9057;DHT22;4563;54.756;9.400;2022-12-18T06:19:05;-2.30;74.60
9057;DHT22;4563;54.756;9.400;2022-12-18T06:21:34;-2.30;74.50
9057;DHT22;4563;54.756;9.400;2022-12-18T06:24:01;-2.30;74.50
9057;DHT22;4563;54.756;9.400;2022-12-18T06:26:27;-2.30;74.20
9057;DHT22;4563;54.756;9.400;2022-12-18T06:28:54;-2.30;74.10
9057;DHT22;4563;54.756;9.400;2022-12-18T06:31:21;-2.30;74.10
9057;DHT22;4563;54.756;9.400;2022-12-18T06:33:49;-2.30;74.10
9057;DHT22;4563;54.756;9.400;2022-12-18T06:36:16;-2.30;74.20
9057;DHT22;4563;54.756;9.400;2022-12-18T06:38:44;-2.30;74.20
9057;DHT22;4563;54.756;9.400;2022-12-18T06:41:12;-2.30;74.10
9057;DHT22;4563;54.756;9.400;2022-12-18T06:43:40;-2.30;74.10
9057;DHT22;4563;54.756;9.400;2022-12-18T06:46:07;-2.30;74.20
9057;DHT22;4563;54.756;9.400;2022-12-18T06:48:33;-2.30;74.20
9057;DHT22;4563;54.756;9.400;2022-12-18T06:51:02;-2.40;74.30
9057;DHT22;4563;54.756;9.400;2022-12-18T06:53:29;-2.40;74.30
9057;DHT22;4563;54.756;9.400;2022-12-18T06:56:00;-2.40;74.30
9057;DHT22;4563;54.756;9.400;2022-12-18T06:58:28;-2.40;74.40
9057;DHT22;4563;54.756;9.400;2022-12-18T07:00:59;-2.40;74.40
9057;DHT22;4563;54.756;9.400;2022-12-18T07:03:26;-2.40;74.30
9057;DHT22;4563;54.756;9.400;2022-12-18T07:05:53;-2.40;74.20
9057;DHT22;4563;54.756;9.400;2022-12-18T07:08:22;-2.40;74.00
9057;DHT22;4563;54.756;9.400;2022-12-18T07:10:49;-2.30;74.10
9057;DHT22;4563;54.756;9.400;2022-12-18T07:13:15;-2.40;74.00
9057;DHT22;4563;54.756;9.400;2022-12-18T07:15:42;-2.40;74.10
9057;DHT22;4563;54.756;9.400;2022-12-18T07:18:09;-2.40;74.30
9057;DHT22;4563;54.756;9.400;2022-12-18T07:20:36;-2.40;74.00
9057;DHT22;4563;54.756;9.400;2022-12-18T07:23:04;-2.40;74.00
9057;DHT22;4563;54.756;9.400;2022-12-18T07:25:34;-2.40;74.20
9057;DHT22;4563;54.756;9.400;2022-12-18T07:28:02;-2.40;74.10
9057;DHT22;4563;54.756;9.400;2022-12-18T07:30:29;-2.40;74.10
9057;DHT22;4563;54.756;9.400;2022-12-18T07:32:55;-2.40;73.80
9057;DHT22;4563;54.756;9.400;2022-12-18T07:35:22;-2.30;73.70
9057;DHT22;4563;54.756;9.400;2022-12-18T07:37:49;-2.40;73.70
9057;DHT22;4563;54.756;9.400;2022-12-18T07:40:16;-2.40;73.80
9057;DHT22;4563;54.756;9.400;2022-12-18T07:42:44;-2.40;73.90
9057;DHT22;4563;54.756;9.400;2022-12-18T07:45:11;-2.40;73.90
9057;DHT22;4563;54.756;9.400;2022-12-18T07:47:37;-2.40;73.90
9057;DHT22;4563;54.756;9.400;2022-12-18T07:50:07;-2.40;73.80
9057;DHT22;4563;54.756;9.400;2022-12-18T07:52:34;-2.40;73.80
9057;DHT22;4563;54.756;9.400;2022-12-18T07:55:02;-2.40;74.50
9057;DHT22;4563;54.756;9.400;2022-12-18T07:57:29;-2.40;73.90
9057;DHT22;4563;54.756;9.400;2022-12-18T07:59:57;-2.50;73.90
9057;DHT22;4563;54.756;9.400;2022-12-18T08:02:24;-2.40;74.70
9057;DHT22;4563;54.756;9.400;2022-12-18T08:04:50;-2.50;74.00
9057;DHT22;4563;54.756;9.400;2022-12-18T08:07:17;-2.50;74.00
9057;DHT22;4563;54.756;9.400;2022-12-18T08:09:44;-2.50;74.00
9057;DHT22;4563;54.756;9.400;2022-12-18T08:12:11;-2.50;73.90
9057;DHT22;4563;54.756;9.400;2022-12-18T08:14:37;-2.50;73.90
9057;DHT22;4563;54.756;9.400;2022-12-18T08:17:06;-2.50;73.90
9057;DHT22;4563;54.756;9.400;2022-12-18T08:19:33;-2.50;74.00
9057;DHT22;4563;54.756;9.400;2022-12-18T08:21:59;-2.50;74.00
9057;DHT22;4563;54.756;9.400;2022-12-18T08:24:26;-2.50;74.50
9057;DHT22;4563;54.756;9.400;2022-12-18T08:26:53;-2.50;74.10
9057;DHT22;4563;54.756;9.400;2022-12-18T08:29:20;-2.50;74.10
9057;DHT22;4563;54.756;9.400;2022-12-18T08:31:47;-2.50;74.10
9057;DHT22;4563;54.756;9.400;2022-12-18T08:34:31;-2.50;74.00
9057;DHT22;4563;54.756;9.400;2022-12-18T08:36:58;-2.60;74.20
9057;DHT22;4563;54.756;9.400;2022-12-18T08:39:25;-2.50;74.00
9057;DHT22;4563;54.756;9.400;2022-12-18T08:41:51;-2.50;74.20
9057;DHT22;4563;54.756;9.400;2022-12-18T08:44:32;-2.50;74.20
9057;DHT22;4563;54.756;9.400;2022-12-18T08:47:06;-2.50;74.10
9057;DHT22;4563;54.756;9.400;2022-12-18T08:49:35;-2.50;74.30
9057;DHT22;4563;54.756;9.400;2022-12-18T08:52:02;-2.50;74.50
9057;DHT22;4563;54.756;9.400;2022-12-18T08:54:29;-2.50;74.60
9057;DHT22;4563;54.756;9.400;2022-12-18T08:56:56;-2.50;74.40
9057;DHT22;4563;54.756;9.400;2022-12-18T08:59:22;-2.50;74.20
9057;DHT22;4563;54.756;9.400;2022-12-18T09:01:49;-2.50;74.20
9057;DHT22;4563;54.756;9.400;2022-12-18T09:04:16;-2.40;74.20
9057;DHT22;4563;54.756;9.400;2022-12-18T09:06:46;-2.40;74.70
9057;DHT22;4563;54.756;9.400;2022-12-18T09:09:13;-2.40;74.10
9057;DHT22;4563;54.756;9.400;2022-12-18T09:11:40;-2.40;74.00
9057;DHT22;4563;54.756;9.400;2022-12-18T09:14:06;-2.40;74.10
9057;DHT22;4563;54.756;9.400;2022-12-18T09:16:33;-2.40;74.10
9057;DHT22;4563;54.756;9.400;2022-12-18T09:19:02;-2.40;74.10
9057;DHT22;4563;54.756;9.400;2022-12-18T09:21:30;-2.30;74.00
9057;DHT22;4563;54.756;9.400;2022-12-18T09:23:59;-2.30;74.00
9057;DHT22;4563;54.756;9.400;2022-12-18T09:26:26;-2.30;74.00
9057;DHT22;4563;54.756;9.400;2022-12-18T09:28:53;-2.30;73.90
9057;DHT22;4563;54.756;9.400;2022-12-18T09:31:22;-2.20;73.90
9057;DHT22;4563;54.756;9.400;2022-12-18T09:33:50;-2.20;73.80
9057;DHT22;4563;54.756;9.400;2022-12-18T09:36:18;-2.20;73.70
9057;DHT22;4563;54.756;9.400;2022-12-18T09:38:45;-2.10;73.60
9057;DHT22;4563;54.756;9.400;2022-12-18T09:44:19;-2.10;73.50
9057;DHT22;4563;54.756;9.400;2022-12-18T09:46:52;-2.00;73.60
9057;DHT22;4563;54.756;9.400;2022-12-18T09:49:22;-2.00;73.60
9057;DHT22;4563;54.756;9.400;2022-12-18T09:51:52;-2.00;73.50
9057;DHT22;4563;54.756;9.400;2022-12-18T09:54:23;-2.00;73.50
9057;DHT22;4563;54.756;9.400;2022-12-18T09:56:51;-2.00;73.60
9057;DHT22;4563;54.756;9.400;2022-12-18T09:59:23;-1.90;73.60
9057;DHT22;4563;54.756;9.400;2022-12-18T10:01:51;-1.90;73.70
9057;DHT22;4563;54.756;9.400;2022-12-18T10:04:18;-1.90;73.60
9057;DHT22;4563;54.756;9.400;2022-12-18T10:06:50;-1.90;73.70
9057;DHT22;4563;54.756;9.400;2022-12-18T10:09:27;-1.90;73.90
9057;DHT22;4563;54.756;9.400;2022-12-18T10:12:03;-1.90;74.00
9057;DHT22;4563;54.756;9.400;2022-12-18T10:14:36;-1.90;74.10
9057;DHT22;4563;54.756;9.400;2022-12-18T10:17:13;-1.90;74.00
9057;DHT22;4563;54.756;9.400;2022-12-18T10:19:45;-1.80;74.00
9057;DHT22;4563;54.756;9.400;2022-12-18T10:22:24;-1.90;74.10
9057;DHT22;4563;54.756;9.400;2022-12-18T10:24:55;-1.80;74.20
9057;DHT22;4563;54.756;9.400;2022-12-18T10:27:27;-1.80;74.10
9057;DHT22;4563;54.756;9.400;2022-12-18T10:29:55;-1.70;73.90
9057;DHT22;4563;54.756;9.400;2022-12-18T10:32:23;-1.80;73.90
9057;DHT22;4563;54.756;9.400;2022-12-18T10:34:52;-1.70;73.90
9057;DHT22;4563;54.756;9.400;2022-12-18T10:37:20;-1.70;74.10
9057;DHT22;4563;54.756;9.400;2022-12-18T10:40:06;-1.70;74.10
9057;DHT22;4563;54.756;9.400;2022-12-18T10:42:35;-1.70;74.00
9057;DHT22;4563;54.756;9.400;2022-12-18T10:45:05;-1.70;74.00
9057;DHT22;4563;54.756;9.400;2022-12-18T10:47:34;-1.60;74.20
9057;DHT22;4563;54.756;9.400;2022-12-18T10:50:02;-1.60;74.20
9057;DHT22;4563;54.756;9.400;2022-12-18T10:52:31;-1.60;74.00
9057;DHT22;4563;54.756;9.400;2022-12-18T10:54:59;-1.60;74.10
9057;DHT22;4563;54.756;9.400;2022-12-18T10:57:35;-1.50;74.10
9057;DHT22;4563;54.756;9.400;2022-12-18T11:00:22;-1.50;74.10
9057;DHT22;4563;54.756;9.400;2022-12-18T11:02:50;-1.50;74.10
9057;DHT22;4563;54.756;9.400;2022-12-18T11:05:28;-1.50;74.10
9057;DHT22;4563;54.756;9.400;2022-12-18T11:07:56;-1.50;74.10
9057;DHT22;4563;54.756;9.400;2022-12-18T11:10:28;-1.50;74.20
9057;DHT22;4563;54.756;9.400;2022-12-18T11:13:12;-1.50;74.50
9057;DHT22;4563;54.756;9.400;2022-12-18T11:15:42;-1.50;74.50
9057;DHT22;4563;54.756;9.400;2022-12-18T11:18:22;-1.40;74.30
9057;DHT22;4563;54.756;9.400;2022-12-18T11:20:53;-1.50;74.40
9057;DHT22;4563;54.756;9.400;2022-12-18T11:23:22;-1.40;74.60
9057;DHT22;4563;54.756;9.400;2022-12-18T11:25:56;-1.40;74.40
9057;DHT22;4563;54.756;9.400;2022-12-18T11:28:29;-1.40;74.40
9057;DHT22;4563;54.756;9.400;2022-12-18T11:31:19;-1.50;74.50
9057;DHT22;4563;54.756;9.400;2022-12-18T11:34:00;-1.40;74.50
9057;DHT22;4563;54.756;9.400;2022-12-18T11:36:32;-1.50;74.50
9057;DHT22;4563;54.756;9.400;2022-12-18T11:39:03;-1.50;74.50
9057;DHT22;4563;54.756;9.400;2022-12-18T11:41:36;-1.40;74.60
9057;DHT22;4563;54.756;9.400;2022-12-18T11:44:26;-1.40;74.60
9057;DHT22;4563;54.756;9.400;2022-12-18T11:46:59;-1.40;74.40
9057;DHT22;4563;54.756;9.400;2022-12-18T11:49:32;-1.30;74.40
9057;DHT22;4563;54.756;9.400;2022-12-18T11:52:03;-1.30;74.30
9057;DHT22;4563;54.756;9.400;2022-12-18T11:54:31;-1.30;74.30
9057;DHT22;4563;54.756;9.400;2022-12-18T11:57:06;-1.30;74.20
9057;DHT22;4563;54.756;9.400;2022-12-18T11:59:38;-1.20;74.10
9057;DHT22;4563;54.756;9.400;2022-12-18T12:02:24;-1.20;74.10
9057;DHT22;4563;54.756;9.400;2022-12-18T12:05:13;-1.20;74.10
9057;DHT22;4563;54.756;9.400;2022-12-18T12:07:51;-1.20;74.00
9057;DHT22;4563;54.756;9.400;2022-12-18T12:10:32;-1.20;73.90
9057;DHT22;4563;54.756;9.400;2022-12-18T12:13:18;-1.10;74.00
9057;DHT22;4563;54.756;9.400;2022-12-18T12:15:58;-1.10;73.90
9057;DHT22;4563;54.756;9.400;2022-12-18T12:18:37;-1.10;73.80
9057;DHT22;4563;54.756;9.400;2022-12-18T12:21:16;-1.00;73.80
9057;DHT22;4563;54.756;9.400;2022-12-18T12:23:51;-1.00;73.70
9057;DHT22;4563;54.756;9.400;2022-12-18T12:26:27;-1.00;73.70
9057;DHT22;4563;54.756;9.400;2022-12-18T12:29:18;-1.00;73.80
9057;DHT22;4563;54.756;9.400;2022-12-18T12:31:58;-0.90;73.90
9057;DHT22;4563;54.756;9.400;2022-12-18T12:34:31;-0.90;73.90
9057;DHT22;4563;54.756;9.400;2022-12-18T12:37:11;-0.90;73.80
9057;DHT22;4563;54.756;9.400;2022-12-18T12:39:44;-0.90;73.80
9057;DHT22;4563;54.756;9.400;2022-12-18T12:42:26;-0.90;73.80
9057;DHT22;4563;54.756;9.400;2022-12-18T12:45:23;-0.90;73.80
9057;DHT22;4563;54.756;9.400;2022-12-18T12:47:54;-0.80;73.90
9057;DHT22;4563;54.756;9.400;2022-12-18T12:50:23;-0.80;73.90
9057;DHT22;4563;54.756;9.400;2022-12-18T12:52:53;-0.80;73.80
9057;DHT22;4563;54.756;9.400;2022-12-18T12:55:22;-0.80;73.90
9057;DHT22;4563;54.756;9.400;2022-12-18T12:57:56;-0.80;73.90
9057;DHT22;4563;54.756;9.400;2022-12-18T13:00:27;-0.80;73.90
9057;DHT22;4563;54.756;9.400;2022-12-18T13:03:03;-0.80;73.90
9057;DHT22;4563;54.756;9.400;2022-12-18T13:05:40;-0.80;74.10
9057;DHT22;4563;54.756;9.400;2022-12-18T13:08:09;-0.80;74.20
9057;DHT22;4563;54.756;9.400;2022-12-18T13:10:38;-0.80;74.30
9057;DHT22;4563;54.756;9.400;2022-12-18T13:13:06;-0.80;74.40
9057;DHT22;4563;54.756;9.400;2022-12-18T13:15:37;-0.80;74.30
9057;DHT22;4563;54.756;9.400;2022-12-18T13:18:17;-0.70;74.20
9057;DHT22;4563;54.756;9.400;2022-12-18T13:20:46;-0.70;74.10
9057;DHT22;4563;54.756;9.400;2022-12-18T13:23:32;-0.70;74.00
9057;DHT22;4563;54.756;9.400;2022-12-18T13:26:00;-0.60;74.10
9057;DHT22;4563;54.756;9.400;2022-12-18T13:28:52;-0.60;74.10
9057;DHT22;4563;54.756;9.400;2022-12-18T13:34:24;-0.60;74.00
9057;DHT22;4563;54.756;9.400;2022-12-18T13:36:52;-0.60;74.10
9057;DHT22;4563;54.756;9.400;2022-12-18T13:39:24;-0.60;74.10
9057;DHT22;4563;54.756;9.400;2022-12-18T13:41:52;-0.60;74.20
9057;DHT22;4563;54.756;9.400;2022-12-18T13:44:30;-0.60;74.10
9057;DHT22;4563;54.756;9.400;2022-12-18T13:46:59;-0.50;74.30
9057;DHT22;4563;54.756;9.400;2022-12-18T13:49:31;-0.50;74.20
9057;DHT22;4563;54.756;9.400;2022-12-18T13:52:13;-0.50;74.00
9057;DHT22;4563;54.756;9.400;2022-12-18T13:54:42;-0.50;73.80
9057;DHT22;4563;54.756;9.400;2022-12-18T13:57:26;-0.40;73.90
9057;DHT22;4563;54.756;9.400;2022-12-18T13:59:57;-0.40;73.80
9057;DHT22;4563;54.756;9.400;2022-12-18T14:02:27;-0.40;73.80
9057;DHT22;4563;54.756;9.400;2022-12-18T14:04:58;-0.40;73.80
9057;DHT22;4563;54.756;9.400;2022-12-18T14:07:30;-0.40;73.80
9057;DHT22;4563;54.756;9.400;2022-12-18T14:09:59;-0.40;73.80
9057;DHT22;4563;54.756;9.400;2022-12-18T14:12:29;-0.30;73.80
9057;DHT22;4563;54.756;9.400;2022-12-18T14:15:23;-0.30;73.80
9057;DHT22;4563;54.756;9.400;2022-12-18T14:17:53;-0.40;73.60
9057;DHT22;4563;54.756;9.400;2022-12-18T14:20:21;-0.30;73.80
9057;DHT22;4563;54.756;9.400;2022-12-18T14:22:49;-0.30;73.70
9057;DHT22;4563;54.756;9.400;2022-12-18T14:25:18;-0.40;73.60
9057;DHT22;4563;54.756;9.400;2022-12-18T14:27:51;-0.40;73.60
9057;DHT22;4563;54.756;9.400;2022-12-18T14:30:28;-0.40;73.60
9057;DHT22;4563;54.756;9.400;2022-12-18T14:33:03;-0.30;73.60
9057;DHT22;4563;54.756;9.400;2022-12-18T14:35:32;-0.30;73.60
9057;DHT22;4563;54.756;9.400;2022-12-18T14:40:59;-0.40;73.50
9057;DHT22;4563;54.756;9.400;2022-12-18T14:43:28;-0.40;73.50
9057;DHT22;4563;54.756;9.400;2022-12-18T14:45:57;-0.40;73.50
9057;DHT22;4563;54.756;9.400;2022-12-18T14:48:36;-0.40;73.40
9057;DHT22;4563;54.756;9.400;2022-12-18T14:51:15;-0.40;73.40
9057;DHT22;4563;54.756;9.400;2022-12-18T14:53:44;-0.40;73.50
9057;DHT22;4563;54.756;9.400;2022-12-18T14:56:16;-0.40;73.40
9057;DHT22;4563;54.756;9.400;2022-12-18T14:58:47;-0.40;73.40
9057;DHT22;4563;54.756;9.400;2022-12-18T15:01:21;-0.40;73.40
9057;DHT22;4563;54.756;9.400;2022-12-18T15:03:50;-0.40;73.40
9057;DHT22;4563;54.756;9.400;2022-12-18T15:06:23;-0.40;73.40
9057;DHT22;4563;54.756;9.400;2022-12-18T15:08:51;-0.40;73.40
9057;DHT22;4563;54.756;9.400;2022-12-18T15:11:45;-0.40;73.30
9057;DHT22;4563;54.756;9.400;2022-12-18T15:14:23;-0.40;73.30
9057;DHT22;4563;54.756;9.400;2022-12-18T15:16:54;-0.40;73.30
9057;DHT22;4563;54.756;9.400;2022-12-18T15:19:31;-0.40;73.30
9057;DHT22;4563;54.756;9.400;2022-12-18T15:22:00;-0.40;73.30
9057;DHT22;4563;54.756;9.400;2022-12-18T15:24:30;-0.40;73.20
9057;DHT22;4563;54.756;9.400;2022-12-18T15:26:57;-0.40;73.20
9057;DHT22;4563;54.756;9.400;2022-12-18T15:29:24;-0.40;73.20
9057;DHT22;4563;54.756;9.400;2022-12-18T15:32:01;-0.40;73.20
9057;DHT22;4563;54.756;9.400;2022-12-18T15:34:29;-0.40;73.10
9057;DHT22;4563;54.756;9.400;2022-12-18T15:36:56;-0.50;73.00
9057;DHT22;4563;54.756;9.400;2022-12-18T15:39:23;-0.50;73.00
9057;DHT22;4563;54.756;9.400;2022-12-18T15:41:50;-0.50;73.00
9057;DHT22;4563;54.756;9.400;2022-12-18T15:44:34;-0.50;72.90
9057;DHT22;4563;54.756;9.400;2022-12-18T15:47:04;-0.50;72.90
9057;DHT22;4563;54.756;9.400;2022-12-18T15:49:34;-0.50;73.00
9057;DHT22;4563;54.756;9.400;2022-12-18T15:52:02;-0.50;72.90
9057;DHT22;4563;54.756;9.400;2022-12-18T15:54:29;-0.50;72.90
9057;DHT22;4563;54.756;9.400;2022-12-18T15:57:13;-0.50;73.20
9057;DHT22;4563;54.756;9.400;2022-12-18T15:59:49;-0.50;72.90
9057;DHT22;4563;54.756;9.400;2022-12-18T16:02:19;-0.50;72.90
9057;DHT22;4563;54.756;9.400;2022-12-18T16:04:48;-0.50;72.90
9057;DHT22;4563;54.756;9.400;2022-12-18T16:07:14;-0.50;72.80
9057;DHT22;4563;54.756;9.400;2022-12-18T16:09:41;-0.50;72.80
9057;DHT22;4563;54.756;9.400;2022-12-18T16:12:14;-0.50;72.80
9057;DHT22;4563;54.756;9.400;2022-12-18T16:14:41;-0.50;72.80
9057;DHT22;4563;54.756;9.400;2022-12-18T16:17:10;-0.50;72.80
9057;DHT22;4563;54.756;9.400;2022-12-18T16:19:39;-0.50;72.70
9057;DHT22;4563;54.756;9.400;2022-12-18T16:22:14;-0.50;72.70
9057;DHT22;4563;54.756;9.400;2022-12-18T16:24:43;-0.50;72.80
9057;DHT22;4563;54.756;9.400;2022-12-18T16:27:13;-0.50;72.70
9057;DHT22;4563;54.756;9.400;2022-12-18T16:29:40;-0.50;72.70
9057;DHT22;4563;54.756;9.400;2022-12-18T16:32:08;-0.50;72.70